Time;durP1;ratioP1;P1;durP2;ratioP2;P2;SDS_P1;SDS_P2;PMS_P1;PMS_P2;Temp;Humidity;BMP_temperature;BMP_pressure;BME280_temperature;BME280_humidity;BME280_pressure;Samples;Min_cycle;Max_cycle;Signal;HPM_P1;HPM_P2
2021/12/24 00:00:13;;;;;;;;;32.25;28.75;;;;;;;;5034263;28;45512;-68
2021/12/24 00:02:38;;;;;;;;;31.00;28.50;;;;;;;;5034721;28;45237;-68
2021/12/24 00:05:04;;;;;;;;;31.25;27.50;;;;;;;;5034469;28;46080;-67
2021/12/24 00:07:30;;;;;;;;;29.00;26.75;;;;;;;;5033492;28;45454;-68
2021/12/24 00:09:55;;;;;;;;;30.50;27.50;;;;;;;;5033901;28;45560;-68
2021/12/24 00:12:22;;;;;;;;;31.00;28.75;;;;;;;;5034061;28;45518;-67
2021/12/24 00:14:52;;;;;;;;;36.50;31.25;;;;;;;;5033794;28;46434;-69
2021/12/24 00:17:23;;;;;;;;;36.25;30.25;;;;;;;;5035904;28;45356;-68
2021/12/24 00:20:20;;;;;;;;;28.00;26.50;;;;;;;;5033951;28;45312;-67
2021/12/24 00:36:19;;;;;;;;;32.75;28.25;;;;;;;;4950684;28;45363;-67
2021/12/24 00:38:44;;;;;;;;;28.00;26.25;;;;;;;;4955131;28;45517;-67
2021/12/24 00:41:10;;;;;;;;;27.00;26.00;;;;;;;;4956933;28;45447;-67
2021/12/24 00:43:35;;;;;;;;;25.25;24.75;;;;;;;;4950836;28;45471;-66
2021/12/24 00:46:00;;;;;;;;;31.75;28.50;;;;;;;;4954555;28;45957;-67
2021/12/24 00:48:25;;;;;;;;;32.50;28.75;;;;;;;;4962780;28;45302;-68
2021/12/24 00:55:56;;;;;;;;;36.50;30.75;;;;;;;;4958162;28;45420;-67
2021/12/24 00:58:21;;;;;;;;;30.25;28.50;;;;;;;;4957181;28;45682;-67
2021/12/24 01:00:47;;;;;;;;;30.25;26.25;;;;;;;;4967140;28;45582;-67
2021/12/24 01:03:12;;;;;;;;;30.00;27.50;;;;;;;;4955108;28;45601;-66
2021/12/24 01:05:38;;;;;;;;;31.50;29.00;;;;;;;;5033580;28;47174;-67
2021/12/24 01:08:04;;;;;;;;;31.25;28.75;;;;;;;;5034435;28;45464;-67
2021/12/24 01:10:31;;;;;;;;;23.75;21.25;;;;;;;;5033336;28;45344;-67
2021/12/24 01:12:56;;;;;;;;;32.50;28.75;;;;;;;;5033712;28;45179;-67
2021/12/24 01:15:22;;;;;;;;;31.00;30.25;;;;;;;;5033632;28;46093;-68
2021/12/24 01:17:57;;;;;;;;;31.25;28.75;;;;;;;;5030564;28;45455;-67
2021/12/24 01:25:27;;;;;;;;;33.25;29.25;;;;;;;;5032884;28;45522;-67
2021/12/24 01:28:12;;;;;;;;;27.25;26.25;;;;;;;;5033020;28;45486;-67
2021/12/24 01:38:54;;;;;;;;;28.00;26.25;;;;;;;;5031007;28;45449;-67
2021/12/24 01:42:40;;;;;;;;;24.00;22.00;;;;;;;;5033884;28;45322;-67
2021/12/24 01:44:05;;;;;;;;;29.00;28.50;;;;;;;;5034033;28;45210;-67
2021/12/24 01:46:30;;;;;;;;;29.00;24.75;;;;;;;;5032451;28;46107;-68
2021/12/24 01:48:55;;;;;;;;;32.00;24.25;;;;;;;;5032406;28;45333;-67
2021/12/24 01:51:20;;;;;;;;;27.25;25.75;;;;;;;;5032886;28;45226;-67
2021/12/24 01:53:45;;;;;;;;;26.50;22.50;;;;;;;;5032942;28;45257;-68
2021/12/24 01:56:11;;;;;;;;;25.50;23.25;;;;;;;;5034488;28;45419;-68
2021/12/24 01:58:37;;;;;;;;;33.25;23.75;;;;;;;;5032663;28;45501;-67
2021/12/24 02:01:02;;;;;;;;;27.75;27.50;;;;;;;;5032371;28;45466;-67
2021/12/24 02:03:28;;;;;;;;;29.25;26.50;;;;;;;;5032405;28;45366;-67
2021/12/24 02:05:53;;;;;;;;;8.25;3.25;;;;;;;;5032486;28;45336;-68
2021/12/24 02:08:18;;;;;;;;;31.75;29.50;;;;;;;;5034462;28;45504;-67
2021/12/24 02:10:44;;;;;;;;;35.25;30.75;;;;;;;;5014561;28;45841;-67
2021/12/24 02:13:09;;;;;;;;;31.00;27.50;;;;;;;;5032140;28;45346;-67
2021/12/24 02:16:08;;;;;;;;;32.00;27.25;;;;;;;;5032089;28;46158;-67
2021/12/24 02:29:32;;;;;;;;;35.50;30.00;;;;;;;;5033665;28;45285;-66
2021/12/24 02:31:57;;;;;;;;;27.00;23.50;;;;;;;;5035999;28;45428;-66
2021/12/24 02:34:22;;;;;;;;;28.75;26.25;;;;;;;;5035435;28;45432;-66
2021/12/24 02:36:48;;;;;;;;;31.50;28.75;;;;;;;;5017608;28;46416;-67
2021/12/24 02:39:13;;;;;;;;;26.00;22.25;;;;;;;;5035355;28;45582;-67
2021/12/24 02:41:38;;;;;;;;;32.25;28.75;;;;;;;;5036535;28;45293;-66
2021/12/24 02:44:03;;;;;;;;;32.25;30.00;;;;;;;;5036684;28;45538;-66
2021/12/24 02:46:53;;;;;;;;;28.00;26.00;;;;;;;;5034618;28;46133;-67
2021/12/24 02:49:18;;;;;;;;;25.75;23.25;;;;;;;;5034578;28;45421;-67
2021/12/24 02:54:35;;;;;;;;;31.00;26.75;;;;;;;;4973607;28;45338;-67
2021/12/24 02:57:07;;;;;;;;;29.50;28.00;;;;;;;;4972214;28;45666;-67
2021/12/24 02:59:36;;;;;;;;;32.25;28.25;;;;;;;;4974417;28;45390;-66
2021/12/24 03:02:02;;;;;;;;;28.00;25.00;;;;;;;;4975175;28;45331;-67
2021/12/24 03:04:27;;;;;;;;;24.75;24.75;;;;;;;;4973494;28;45588;-67
2021/12/24 03:06:53;;;;;;;;;24.25;22.75;;;;;;;;4960756;28;46041;-67
2021/12/24 03:09:19;;;;;;;;;33.00;28.50;;;;;;;;4973571;28;45362;-67
2021/12/24 03:11:45;;;;;;;;;32.00;26.00;;;;;;;;4973382;28;45480;-67
2021/12/24 03:14:11;;;;;;;;;30.50;26.50;;;;;;;;4975435;28;45501;-67
2021/12/24 03:16:37;;;;;;;;;14.25;12.25;;;;;;;;4972801;28;46136;-67
2021/12/24 03:19:04;;;;;;;;;31.25;27.50;;;;;;;;4973127;28;45473;-67
2021/12/24 03:21:39;;;;;;;;;32.25;29.75;;;;;;;;4973193;28;45375;-66
2021/12/24 03:26:37;;;;;;;;;29.25;26.25;;;;;;;;4974580;28;46029;-67
2021/12/24 03:29:04;;;;;;;;;23.50;22.00;;;;;;;;4974250;28;45453;-67
2021/12/24 03:31:29;;;;;;;;;26.00;23.75;;;;;;;;5004323;28;45540;-67
2021/12/24 03:33:54;;;;;;;;;25.25;22.25;;;;;;;;5034624;28;45309;-67
2021/12/24 03:36:23;;;;;;;;;28.50;26.25;;;;;;;;5033149;28;46069;-67
2021/12/24 03:38:49;;;;;;;;;30.75;25.75;;;;;;;;5034300;28;45475;-67
2021/12/24 03:41:14;;;;;;;;;30.75;28.00;;;;;;;;5035055;28;45817;-67
2021/12/24 03:43:40;;;;;;;;;28.75;25.50;;;;;;;;5034502;28;45482;-67
2021/12/24 03:46:09;;;;;;;;;34.25;29.25;;;;;;;;5034096;28;46215;-67
2021/12/24 03:48:46;;;;;;;;;29.50;26.25;;;;;;;;5034413;28;45435;-67
2021/12/24 03:56:22;;;;;;;;;30.25;26.75;;;;;;;;5035711;28;45364;-67
2021/12/24 03:58:48;;;;;;;;;29.50;24.75;;;;;;;;5033465;28;45624;-67
2021/12/24 04:01:13;;;;;;;;;35.75;31.25;;;;;;;;5033488;28;45457;-68
2021/12/24 04:03:38;;;;;;;;;26.75;26.25;;;;;;;;5034255;28;45297;-67
2021/12/24 04:06:03;;;;;;;;;25.25;24.75;;;;;;;;5033657;28;45369;-67
2021/12/24 04:08:30;;;;;;;;;29.50;25.25;;;;;;;;5035294;28;45644;-68
2021/12/24 04:10:56;;;;;;;;;31.25;27.75;;;;;;;;5034233;28;45342;-66
2021/12/24 04:13:21;;;;;;;;;28.25;24.75;;;;;;;;5033053;28;45314;-67
2021/12/24 04:15:46;;;;;;;;;35.75;31.00;;;;;;;;5031844;28;45407;-67
2021/12/24 04:18:17;;;;;;;;;29.75;27.75;;;;;;;;5031822;28;45432;-67
2021/12/24 04:26:10;;;;;;;;;35.50;30.25;;;;;;;;5032895;28;45313;-67
2021/12/24 04:28:35;;;;;;;;;31.00;27.75;;;;;;;;5032377;28;45352;-67
2021/12/24 04:31:02;;;;;;;;;24.25;21.50;;;;;;;;5033672;28;45194;-67
2021/12/24 04:33:32;;;;;;;;;25.75;24.50;;;;;;;;5033950;28;45432;-66
2021/12/24 04:36:07;;;;;;;;;30.50;28.50;;;;;;;;5017624;28;46097;-67
2021/12/24 04:38:56;;;;;;;;;31.00;26.50;;;;;;;;5031336;28;45345;-67
2021/12/24 04:52:40;;;;;;;;;27.75;24.75;;;;;;;;5033383;28;45418;-66
2021/12/24 05:03:26;;;;;;;;;36.50;25.75;;;;;;;;5019364;28;45459;-66
2021/12/24 05:06:04;;;;;;;;;28.75;26.50;;;;;;;;5033203;28;46655;-67
2021/12/24 05:08:39;;;;;;;;;26.50;24.75;;;;;;;;5030753;28;45329;-67
2021/12/24 05:11:10;;;;;;;;;28.00;28.00;;;;;;;;5033021;28;45280;-67
2021/12/24 05:13:35;;;;;;;;;31.00;27.75;;;;;;;;5031763;28;45307;-66
2021/12/24 05:16:12;;;;;;;;;29.25;24.75;;;;;;;;5032570;28;45471;-66
2021/12/24 05:19:03;;;;;;;;;24.50;23.00;;;;;;;;5032156;28;46096;-67
2021/12/24 05:21:35;;;;;;;;;32.00;27.25;;;;;;;;5031697;28;45694;-67
2021/12/24 05:24:05;;;;;;;;;5.50;5.50;;;;;;;;5016858;28;45292;-68
2021/12/24 05:26:31;;;;;;;;;26.75;26.00;;;;;;;;5033250;28;45445;-67
2021/12/24 05:28:59;;;;;;;;;27.50;23.75;;;;;;;;5032243;28;46015;-67
2021/12/24 05:31:25;;;;;;;;;28.00;27.50;;;;;;;;5031833;28;45387;-66
2021/12/24 05:33:51;;;;;;;;;28.75;25.50;;;;;;;;5030642;28;45350;-65
2021/12/24 05:36:16;;;;;;;;;29.00;26.50;;;;;;;;5030882;28;45405;-67
2021/12/24 05:38:41;;;;;;;;;28.75;26.50;;;;;;;;5032177;28;45597;-66
2021/12/24 05:41:06;;;;;;;;;28.75;27.00;;;;;;;;5033215;28;45373;-66
2021/12/24 05:43:32;;;;;;;;;32.50;31.00;;;;;;;;5032726;28;45396;-66
2021/12/24 05:45:57;;;;;;;;;24.25;23.50;;;;;;;;5032398;28;45435;-67
2021/12/24 05:48:22;;;;;;;;;29.75;27.50;;;;;;;;5031388;28;45972;-66
2021/12/24 05:50:48;;;;;;;;;24.50;21.75;;;;;;;;5032309;28;45313;-67
2021/12/24 05:53:13;;;;;;;;;30.25;26.25;;;;;;;;5033992;28;45362;-67
2021/12/24 05:55:38;;;;;;;;;27.50;24.25;;;;;;;;5034827;28;45210;-67
2021/12/24 05:58:07;;;;;;;;;30.25;25.50;;;;;;;;5034860;28;46874;-67
2021/12/24 06:00:33;;;;;;;;;31.00;25.50;;;;;;;;5034636;28;45479;-67
2021/12/24 06:02:58;;;;;;;;;24.25;20.50;;;;;;;;5035262;28;45306;-66
2021/12/24 06:05:23;;;;;;;;;14.75;14.75;;;;;;;;5036890;28;45334;-66
2021/12/24 06:07:48;;;;;;;;;22.25;22.25;;;;;;;;5034400;28;47214;-67
2021/12/24 06:10:14;;;;;;;;;30.75;29.25;;;;;;;;5033660;28;45508;-66
2021/12/24 06:12:39;;;;;;;;;21.75;19.75;;;;;;;;5032838;28;45455;-67
2021/12/24 06:15:07;;;;;;;;;26.00;24.75;;;;;;;;5014495;28;45302;-67
2021/12/24 06:17:33;;;;;;;;;27.75;25.75;;;;;;;;5035628;28;45339;-66
2021/12/24 06:19:58;;;;;;;;;27.00;23.00;;;;;;;;5034393;28;45392;-66
2021/12/24 06:22:24;;;;;;;;;26.50;24.75;;;;;;;;5034298;28;45273;-66
2021/12/24 06:24:49;;;;;;;;;22.25;22.25;;;;;;;;5033695;28;45351;-66
2021/12/24 06:27:15;;;;;;;;;32.75;28.25;;;;;;;;5034084;28;46015;-67
2021/12/24 06:29:40;;;;;;;;;26.25;22.75;;;;;;;;5034659;28;45288;-67
2021/12/24 06:32:05;;;;;;;;;25.75;24.00;;;;;;;;5035930;28;45385;-68
2021/12/24 06:34:31;;;;;;;;;29.25;24.75;;;;;;;;5034297;28;45542;-67
2021/12/24 06:36:56;;;;;;;;;22.50;20.75;;;;;;;;5032964;28;46152;-67
2021/12/24 06:39:22;;;;;;;;;18.50;17.00;;;;;;;;5024541;28;45514;-67
2021/12/24 06:41:47;;;;;;;;;25.25;23.00;;;;;;;;5034544;28;45501;-67
2021/12/24 06:44:12;;;;;;;;;19.75;19.75;;;;;;;;5036485;28;45470;-65
2021/12/24 06:46:40;;;;;;;;;22.50;21.25;;;;;;;;5033904;28;46083;-66
2021/12/24 06:49:06;;;;;;;;;23.25;22.00;;;;;;;;5032444;28;45524;-66
2021/12/24 06:51:31;;;;;;;;;29.50;23.00;;;;;;;;5028042;28;45459;-66
2021/12/24 06:53:56;;;;;;;;;22.00;19.00;;;;;;;;5029001;28;45450;-67
2021/12/24 06:56:21;;;;;;;;;21.50;19.50;;;;;;;;5028830;28;47215;-68
2021/12/24 06:58:47;;;;;;;;;20.75;19.00;;;;;;;;5032576;28;45412;-68
2021/12/24 07:01:12;;;;;;;;;19.00;17.25;;;;;;;;5033716;28;45482;-67
2021/12/24 07:03:37;;;;;;;;;19.75;17.75;;;;;;;;5031926;28;45809;-66
2021/12/24 07:06:03;;;;;;;;;23.50;19.25;;;;;;;;5026979;28;45911;-66
2021/12/24 07:08:28;;;;;;;;;20.00;19.00;;;;;;;;5028646;28;45779;-66
2021/12/24 07:10:54;;;;;;;;;19.50;16.75;;;;;;;;5031634;28;45449;-67
2021/12/24 07:13:19;;;;;;;;;17.50;14.50;;;;;;;;5030288;28;45476;-66
2021/12/24 07:15:44;;;;;;;;;12.75;12.75;;;;;;;;5032771;28;45358;-66
2021/12/24 07:18:09;;;;;;;;;18.25;17.00;;;;;;;;5030446;28;45334;-66
2021/12/24 07:20:35;;;;;;;;;17.75;17.25;;;;;;;;5035294;28;45380;-64
2021/12/24 07:23:00;;;;;;;;;12.75;10.25;;;;;;;;5033633;28;45501;-66
2021/12/24 07:25:26;;;;;;;;;18.50;16.00;;;;;;;;5033170;28;46155;-67
2021/12/24 07:27:51;;;;;;;;;18.50;14.50;;;;;;;;5033173;28;45368;-67
2021/12/24 07:30:18;;;;;;;;;18.00;18.00;;;;;;;;5032537;28;45361;-67
2021/12/24 07:32:44;;;;;;;;;15.50;14.00;;;;;;;;5034726;28;45353;-67
2021/12/24 07:35:10;;;;;;;;;15.75;14.75;;;;;;;;5033184;28;45993;-66
2021/12/24 07:37:35;;;;;;;;;16.25;15.00;;;;;;;;5032286;28;45278;-66
2021/12/24 07:40:02;;;;;;;;;15.25;14.50;;;;;;;;5031985;28;45413;-66
2021/12/24 07:42:28;;;;;;;;;28.00;26.25;;;;;;;;5031916;28;45238;-66
2021/12/24 07:44:53;;;;;;;;;15.25;14.00;;;;;;;;5033257;28;46214;-66
2021/12/24 07:47:27;;;;;;;;;20.25;17.25;;;;;;;;5034611;28;45302;-66
2021/12/24 07:50:00;;;;;;;;;18.75;16.25;;;;;;;;5032328;28;45523;-65
2021/12/24 07:52:25;;;;;;;;;18.25;14.75;;;;;;;;5027924;28;45479;-66
2021/12/24 07:54:54;;;;;;;;;19.25;17.75;;;;;;;;5030790;28;45549;-65
2021/12/24 07:57:19;;;;;;;;;20.00;15.00;;;;;;;;5025740;28;49908;-65
2021/12/24 07:59:44;;;;;;;;;13.00;12.75;;;;;;;;5025858;28;45341;-65
2021/12/24 08:02:11;;;;;;;;;16.25;14.50;;;;;;;;5031356;28;45483;-67
2021/12/24 08:04:37;;;;;;;;;16.50;16.25;;;;;;;;5031026;28;46219;-66
2021/12/24 08:07:03;;;;;;;;;15.75;15.25;;;;;;;;5030703;28;45458;-67
2021/12/24 08:09:29;;;;;;;;;10.25;10.25;;;;;;;;5031186;28;46128;-67
2021/12/24 08:11:54;;;;;;;;;18.00;17.00;;;;;;;;5029625;28;45511;-67
2021/12/24 08:14:20;;;;;;;;;16.75;16.25;;;;;;;;5032957;28;46436;-67
2021/12/24 08:16:45;;;;;;;;;12.75;11.00;;;;;;;;5031664;28;45329;-68
2021/12/24 08:19:10;;;;;;;;;9.00;9.00;;;;;;;;5032113;28;45463;-66
2021/12/24 08:21:36;;;;;;;;;13.50;13.00;;;;;;;;5031141;28;45423;-67
2021/12/24 08:24:01;;;;;;;;;9.00;9.00;;;;;;;;5028256;28;45432;-66
2021/12/24 08:26:29;;;;;;;;;11.50;10.75;;;;;;;;5033572;28;45365;-68
2021/12/24 08:28:54;;;;;;;;;13.75;11.00;;;;;;;;5031627;28;45517;-67
2021/12/24 08:31:19;;;;;;;;;9.50;9.50;;;;;;;;5032025;28;45456;-66
2021/12/24 08:33:45;;;;;;;;;8.00;8.00;;;;;;;;5030471;28;46931;-68
2021/12/24 08:36:10;;;;;;;;;9.00;9.00;;;;;;;;5029489;28;45424;-66
2021/12/24 08:38:36;;;;;;;;;12.00;11.00;;;;;;;;5029821;28;45583;-67
2021/12/24 08:41:01;;;;;;;;;15.25;12.25;;;;;;;;5010352;28;45523;-67
2021/12/24 08:43:26;;;;;;;;;12.25;12.25;;;;;;;;5028598;28;45364;-67
2021/12/24 08:45:52;;;;;;;;;13.25;11.75;;;;;;;;5031362;28;45719;-67
2021/12/24 08:48:17;;;;;;;;;12.00;11.25;;;;;;;;5030985;28;45425;-67
2021/12/24 08:50:42;;;;;;;;;16.50;13.50;;;;;;;;5030824;28;45547;-67
2021/12/24 08:53:08;;;;;;;;;9.25;7.75;;;;;;;;5031045;28;46920;-67
2021/12/24 08:55:33;;;;;;;;;8.25;7.25;;;;;;;;5030597;28;45410;-66
2021/12/24 08:57:59;;;;;;;;;10.00;9.00;;;;;;;;5030772;28;46358;-67
2021/12/24 09:00:24;;;;;;;;;11.00;9.25;;;;;;;;5025507;28;45436;-68
2021/12/24 09:02:49;;;;;;;;;13.00;9.75;;;;;;;;5025419;28;46441;-67
2021/12/24 09:05:15;;;;;;;;;6.75;6.75;;;;;;;;5027313;28;45418;-68
2021/12/24 09:07:41;;;;;;;;;12.75;12.75;;;;;;;;5028917;28;45400;-66
2021/12/24 09:10:07;;;;;;;;;11.00;9.50;;;;;;;;5026789;28;45465;-68
2021/12/24 09:12:32;;;;;;;;;11.00;11.00;;;;;;;;5029789;28;45978;-66
2021/12/24 09:14:57;;;;;;;;;9.75;9.00;;;;;;;;5025248;28;45405;-67
2021/12/24 09:17:23;;;;;;;;;14.50;12.25;;;;;;;;5029458;28;45425;-67
2021/12/24 09:19:50;;;;;;;;;12.25;12.25;;;;;;;;5028096;28;45431;-68
2021/12/24 09:22:22;;;;;;;;;10.00;8.75;;;;;;;;5028004;28;45370;-67
2021/12/24 09:24:50;;;;;;;;;11.00;9.00;;;;;;;;5025249;28;45515;-67
2021/12/24 09:27:16;;;;;;;;;12.25;11.00;;;;;;;;5027696;28;45481;-69
2021/12/24 09:29:42;;;;;;;;;11.50;11.50;;;;;;;;5032478;28;45349;-67
2021/12/24 09:32:08;;;;;;;;;12.25;12.25;;;;;;;;5032114;28;45897;-69
2021/12/24 09:34:33;;;;;;;;;9.50;8.25;;;;;;;;5029307;28;45447;-68
2021/12/24 09:36:58;;;;;;;;;12.75;11.50;;;;;;;;5030279;28;45315;-66
2021/12/24 09:39:23;;;;;;;;;15.00;12.75;;;;;;;;5030327;28;45591;-67
2021/12/24 09:41:48;;;;;;;;;11.50;11.25;;;;;;;;5023324;28;47068;-67
2021/12/24 09:44:14;;;;;;;;;15.50;12.75;;;;;;;;5014389;28;45441;-67
2021/12/24 09:46:42;;;;;;;;;10.25;10.25;;;;;;;;5028078;28;45817;-67
2021/12/24 09:49:08;;;;;;;;;16.25;14.25;;;;;;;;5032216;28;45273;-68
2021/12/24 09:51:38;;;;;;;;;12.75;12.00;;;;;;;;5029421;28;47214;-68
2021/12/24 09:54:07;;;;;;;;;11.50;11.50;;;;;;;;5028238;28;45662;-66
2021/12/24 09:56:32;;;;;;;;;9.00;8.75;;;;;;;;5029943;28;45545;-66
2021/12/24 09:58:58;;;;;;;;;11.25;11.25;;;;;;;;5032482;28;45288;-66
2021/12/24 10:01:30;;;;;;;;;12.00;9.75;;;;;;;;5033574;28;46219;-67
2021/12/24 10:04:00;;;;;;;;;11.25;9.50;;;;;;;;5012480;28;45487;-67
2021/12/24 10:06:26;;;;;;;;;10.75;9.25;;;;;;;;5033098;28;45570;-67
2021/12/24 10:08:58;;;;;;;;;14.25;13.00;;;;;;;;5015748;28;45419;-67
2021/12/24 10:11:28;;;;;;;;;12.00;10.50;;;;;;;;5034734;28;46560;-67
2021/12/24 10:13:56;;;;;;;;;12.75;11.75;;;;;;;;5033679;28;45445;-68
2021/12/24 10:16:22;;;;;;;;;12.00;10.25;;;;;;;;5033402;28;45571;-68
2021/12/24 10:18:52;;;;;;;;;10.50;9.50;;;;;;;;5033674;28;45396;-68
2021/12/24 10:21:19;;;;;;;;;14.25;13.00;;;;;;;;5033396;28;48301;-68
2021/12/24 10:23:44;;;;;;;;;14.75;12.25;;;;;;;;5033703;28;45386;-68
2021/12/24 10:26:14;;;;;;;;;15.50;13.50;;;;;;;;5032694;28;45483;-70
2021/12/24 10:28:47;;;;;;;;;14.25;13.25;;;;;;;;5033158;28;45524;-68
2021/12/24 10:31:16;;;;;;;;;16.00;14.00;;;;;;;;5032522;28;46078;-68
2021/12/24 10:34:01;;;;;;;;;18.75;17.75;;;;;;;;5034121;28;45381;-68
2021/12/24 10:36:26;;;;;;;;;17.50;13.75;;;;;;;;5033200;28;45455;-68
2021/12/24 10:38:55;;;;;;;;;13.00;12.50;;;;;;;;5032187;28;45458;-68
2021/12/24 10:41:21;;;;;;;;;13.75;12.75;;;;;;;;5035368;28;45317;-68
2021/12/24 10:43:46;;;;;;;;;11.25;11.25;;;;;;;;5034085;28;45217;-68
2021/12/24 10:46:15;;;;;;;;;15.25;12.25;;;;;;;;5031542;28;45455;-67
2021/12/24 10:48:48;;;;;;;;;13.00;13.00;;;;;;;;5032401;28;45390;-68
2021/12/24 10:51:31;;;;;;;;;11.75;9.75;;;;;;;;5033896;28;45451;-67
2021/12/24 10:54:03;;;;;;;;;13.00;11.25;;;;;;;;5034394;28;45447;-67
2021/12/24 10:56:28;;;;;;;;;9.50;8.75;;;;;;;;5031329;28;45382;-66
2021/12/24 10:58:54;;;;;;;;;11.50;11.50;;;;;;;;5032900;28;45335;-68
2021/12/24 11:01:19;;;;;;;;;15.75;15.75;;;;;;;;5032459;28;45334;-67
2021/12/24 11:03:51;;;;;;;;;19.00;16.25;;;;;;;;5032974;28;45628;-68
2021/12/24 11:06:17;;;;;;;;;15.25;12.75;;;;;;;;5033123;28;45555;-68
2021/12/24 11:08:42;;;;;;;;;11.50;11.00;;;;;;;;5015543;28;45457;-68
2021/12/24 11:11:11;;;;;;;;;11.25;11.25;;;;;;;;5035039;28;46248;-68
2021/12/24 11:13:41;;;;;;;;;12.75;12.75;;;;;;;;5033107;28;45308;-69
2021/12/24 11:16:08;;;;;;;;;15.00;11.75;;;;;;;;5033076;28;45523;-69
2021/12/24 11:18:39;;;;;;;;;13.75;12.75;;;;;;;;5033154;28;45486;-68
2021/12/24 11:21:09;;;;;;;;;15.25;13.00;;;;;;;;5033355;28;46552;-69
2021/12/24 11:23:36;;;;;;;;;14.25;14.00;;;;;;;;5034335;28;45228;-69
2021/12/24 11:26:04;;;;;;;;;14.00;11.75;;;;;;;;5031639;28;45342;-68
2021/12/24 11:28:30;;;;;;;;;17.00;14.00;;;;;;;;5030388;28;45428;-69
2021/12/24 11:31:00;;;;;;;;;15.75;13.75;;;;;;;;5031436;28;46111;-68
2021/12/24 11:33:26;;;;;;;;;16.75;15.00;;;;;;;;5032494;28;45477;-68
2021/12/24 11:35:52;;;;;;;;;16.50;16.50;;;;;;;;5032742;28;45495;-69
2021/12/24 11:38:19;;;;;;;;;16.75;15.75;;;;;;;;5034216;28;45290;-67
2021/12/24 11:40:45;;;;;;;;;18.50;17.00;;;;;;;;5032767;28;46380;-67
2021/12/24 11:43:11;;;;;;;;;17.25;14.00;;;;;;;;5031922;28;45444;-69
2021/12/24 11:45:36;;;;;;;;;12.75;12.75;;;;;;;;5032671;28;45503;-69
2021/12/24 11:48:02;;;;;;;;;15.25;14.25;;;;;;;;5032683;28;45430;-69
2021/12/24 11:50:28;;;;;;;;;13.25;12.25;;;;;;;;5034479;28;45359;-68
2021/12/24 11:52:55;;;;;;;;;22.75;21.00;;;;;;;;5031819;28;45479;-68
2021/12/24 11:55:21;;;;;;;;;19.00;16.50;;;;;;;;5032643;28;45488;-68
2021/12/24 11:57:55;;;;;;;;;18.75;16.25;;;;;;;;5032652;28;45332;-70
2021/12/24 12:00:22;;;;;;;;;17.00;16.25;;;;;;;;5033040;28;45906;-69
2021/12/24 12:02:47;;;;;;;;;18.00;17.25;;;;;;;;5033011;28;45325;-69
2021/12/24 12:05:24;;;;;;;;;17.50;17.50;;;;;;;;5032846;28;45461;-69
2021/12/24 12:07:50;;;;;;;;;17.25;16.50;;;;;;;;5031474;28;45418;-67
2021/12/24 12:10:36;;;;;;;;;22.00;17.75;;;;;;;;5032184;28;47056;-68
2021/12/24 12:13:01;;;;;;;;;21.75;20.25;;;;;;;;5014661;28;45823;-69
2021/12/24 12:15:31;;;;;;;;;19.00;16.50;;;;;;;;5032440;28;45437;-68
2021/12/24 12:17:58;;;;;;;;;18.00;15.25;;;;;;;;5032165;28;45323;-69
2021/12/24 12:20:42;;;;;;;;;18.50;17.50;;;;;;;;5033437;28;46246;-68
2021/12/24 12:23:14;;;;;;;;;13.25;12.25;;;;;;;;5032873;28;45299;-70
2021/12/24 12:25:40;;;;;;;;;15.25;14.25;;;;;;;;5031806;28;45314;-68
2021/12/24 12:28:10;;;;;;;;;14.50;14.50;;;;;;;;5031088;28;45581;-69
2021/12/24 12:30:39;;;;;;;;;20.25;16.00;;;;;;;;5031756;28;45569;-68
2021/12/24 12:33:07;;;;;;;;;20.00;16.50;;;;;;;;5031797;28;45499;-68
2021/12/24 12:35:43;;;;;;;;;19.25;17.75;;;;;;;;5016258;28;45382;-68
2021/12/24 12:38:22;;;;;;;;;17.25;15.00;;;;;;;;5033322;28;45223;-67
2021/12/24 12:40:48;;;;;;;;;17.25;15.75;;;;;;;;5032032;28;46057;-68
2021/12/24 12:43:14;;;;;;;;;14.25;13.00;;;;;;;;5030432;28;45380;-69
2021/12/24 12:45:41;;;;;;;;;22.25;19.25;;;;;;;;5012875;28;45458;-68
2021/12/24 12:48:08;;;;;;;;;18.75;17.00;;;;;;;;5031852;28;45462;-68
2021/12/24 12:50:34;;;;;;;;;14.25;13.25;;;;;;;;5033609;28;45794;-68
2021/12/24 12:53:18;;;;;;;;;18.75;13.25;;;;;;;;5031283;28;45516;-68
2021/12/24 12:55:43;;;;;;;;;15.25;14.25;;;;;;;;5031506;28;45287;-67
2021/12/24 12:58:19;;;;;;;;;19.25;16.50;;;;;;;;5031387;28;45322;-68
2021/12/24 13:01:03;;;;;;;;;15.25;13.25;;;;;;;;5031616;28;47113;-68
2021/12/24 13:03:28;;;;;;;;;17.50;14.75;;;;;;;;5031402;28;45298;-68
2021/12/24 13:05:58;;;;;;;;;16.00;16.00;;;;;;;;5031707;28;45352;-67
2021/12/24 13:08:24;;;;;;;;;20.25;18.75;;;;;;;;5033489;28;45384;-68
2021/12/24 13:10:56;;;;;;;;;20.75;17.50;;;;;;;;5031059;28;46376;-67
2021/12/24 13:13:21;;;;;;;;;23.25;19.75;;;;;;;;5031063;28;45508;-69
2021/12/24 13:15:47;;;;;;;;;15.25;13.00;;;;;;;;5028967;28;45447;-68
2021/12/24 13:18:24;;;;;;;;;20.25;17.75;;;;;;;;5030581;28;45464;-69
2021/12/24 13:22:27;;;;;;;;;16.00;14.50;;;;;;;;5030911;28;46234;-69
2021/12/24 13:23:36;;;;;;;;;14.00;11.50;;;;;;;;5028885;28;45367;-69
2021/12/24 13:26:14;;;;;;;;;14.50;14.50;;;;;;;;5029746;28;45290;-67
2021/12/24 13:28:55;;;;;;;;;11.50;11.25;;;;;;;;5030217;28;45585;-66
2021/12/24 13:31:21;;;;;;;;;15.75;15.00;;;;;;;;5029709;28;46080;-68
2021/12/24 13:33:46;;;;;;;;;12.25;12.00;;;;;;;;5030889;28;45400;-68
2021/12/24 13:36:12;;;;;;;;;16.00;15.25;;;;;;;;5031859;28;45463;-69
2021/12/24 13:38:38;;;;;;;;;16.50;14.00;;;;;;;;5031503;28;45368;-68
2021/12/24 13:41:03;;;;;;;;;21.75;19.75;;;;;;;;5031287;28;47161;-68
2021/12/24 13:43:31;;;;;;;;;12.00;12.00;;;;;;;;5030397;28;45194;-67
2021/12/24 13:46:04;;;;;;;;;17.50;17.25;;;;;;;;5029859;28;45540;-68
2021/12/24 13:48:42;;;;;;;;;15.00;13.75;;;;;;;;5030132;28;45626;-68
2021/12/24 13:56:37;;;;;;;;;22.25;20.50;;;;;;;;5028680;28;45325;-68
2021/12/24 13:59:02;;;;;;;;;17.00;15.50;;;;;;;;5030908;28;45499;-67
2021/12/24 14:01:29;;;;;;;;;17.50;14.75;;;;;;;;5029731;28;46483;-68
2021/12/24 14:03:54;;;;;;;;;19.00;16.50;;;;;;;;5029875;28;45353;-68
2021/12/24 14:06:20;;;;;;;;;18.75;15.00;;;;;;;;5031129;28;45242;-66
2021/12/24 14:08:45;;;;;;;;;15.00;14.75;;;;;;;;5029373;28;45409;-68
2021/12/24 14:11:12;;;;;;;;;17.50;17.00;;;;;;;;5030787;28;46165;-68
2021/12/24 14:13:49;;;;;;;;;14.75;14.75;;;;;;;;5029340;28;45471;-68
2021/12/24 14:16:32;;;;;;;;;15.25;15.25;;;;;;;;5014666;28;45551;-69
2021/12/24 14:19:15;;;;;;;;;16.25;15.50;;;;;;;;5033464;28;45216;-67
2021/12/24 14:21:47;;;;;;;;;17.75;15.25;;;;;;;;5032723;28;46957;-68
2021/12/24 14:24:18;;;;;;;;;12.00;10.50;;;;;;;;5033351;28;45577;-67
2021/12/24 14:26:49;;;;;;;;;14.25;13.75;;;;;;;;5034494;28;45308;-67
2021/12/24 14:29:23;;;;;;;;;16.75;15.50;;;;;;;;5033588;28;45514;-68
2021/12/24 14:32:03;;;;;;;;;12.75;11.50;;;;;;;;5033763;28;45544;-67
2021/12/24 14:34:32;;;;;;;;;11.25;10.75;;;;;;;;5033837;28;45392;-69
2021/12/24 14:36:58;;;;;;;;;19.00;14.25;;;;;;;;5033077;28;45464;-69
2021/12/24 14:39:23;;;;;;;;;13.00;12.00;;;;;;;;5003967;28;45437;-69
2021/12/24 14:42:07;;;;;;;;;15.00;15.00;;;;;;;;5014076;28;45554;-69
2021/12/24 14:44:32;;;;;;;;;18.25;15.25;;;;;;;;5014116;28;45945;-68
2021/12/24 14:46:58;;;;;;;;;16.50;11.50;;;;;;;;5014449;28;45330;-68
2021/12/24 14:49:36;;;;;;;;;19.00;15.00;;;;;;;;5013263;28;45467;-69
2021/12/24 14:52:20;;;;;;;;;17.75;15.50;;;;;;;;5012439;28;47553;-69
2021/12/24 14:55:04;;;;;;;;;18.50;17.00;;;;;;;;5012644;28;45523;-68
2021/12/24 14:57:31;;;;;;;;;23.50;18.00;;;;;;;;5011414;28;45637;-68
2021/12/24 14:59:57;;;;;;;;;22.50;21.50;;;;;;;;5012494;28;45544;-67
2021/12/24 15:02:22;;;;;;;;;12.75;11.75;;;;;;;;5015238;28;46251;-68
2021/12/24 15:04:56;;;;;;;;;21.50;19.50;;;;;;;;5012464;28;45289;-67
2021/12/24 15:07:31;;;;;;;;;28.25;18.00;;;;;;;;5013149;28;45339;-66
2021/12/24 15:10:09;;;;;;;;;23.50;19.50;;;;;;;;5012693;28;45225;-67
2021/12/24 15:12:42;;;;;;;;;22.00;19.25;;;;;;;;5012764;28;47216;-67
2021/12/24 15:15:07;;;;;;;;;31.00;26.50;;;;;;;;5013092;28;45222;-68
2021/12/24 15:17:43;;;;;;;;;16.75;15.25;;;;;;;;5014306;28;45416;-67
2021/12/24 15:20:09;;;;;;;;;20.50;17.75;;;;;;;;5013064;28;45551;-68
2021/12/24 15:22:34;;;;;;;;;26.50;24.50;;;;;;;;5013514;28;45573;-68
2021/12/24 15:25:00;;;;;;;;;19.00;14.50;;;;;;;;5012257;28;45569;-68
2021/12/24 15:27:31;;;;;;;;;17.75;16.00;;;;;;;;5012778;28;45506;-66
2021/12/24 15:29:57;;;;;;;;;20.25;18.00;;;;;;;;5012894;28;45781;-69
2021/12/24 15:32:22;;;;;;;;;30.25;28.75;;;;;;;;5014242;28;46486;-69
2021/12/24 15:34:47;;;;;;;;;20.75;18.25;;;;;;;;5012652;28;45397;-69
2021/12/24 15:37:13;;;;;;;;;17.25;15.00;;;;;;;;5012571;28;45489;-73
2021/12/24 15:39:38;;;;;;;;;20.50;20.50;;;;;;;;5022788;28;45760;-68
2021/12/24 15:42:03;;;;;;;;;18.25;14.50;;;;;;;;5032813;28;46143;-68
2021/12/24 15:44:28;;;;;;;;;14.75;14.25;;;;;;;;5034264;28;45361;-68
2021/12/24 15:46:53;;;;;;;;;25.75;21.25;;;;;;;;5032681;28;45401;-68